createdAt,value
2018-07-24T00:00:03.337Z,93.20
2018-07-24T00:02:31.979Z,93.00
2018-07-24T00:05:00.525Z,93.20
2018-07-24T00:07:28.994Z,93.40
2018-07-24T00:09:57.781Z,93.20
2018-07-24T00:12:26.230Z,93.40
2018-07-24T00:14:54.674Z,93.40
2018-07-24T00:17:23.216Z,93.80
2018-07-24T00:19:51.705Z,93.50
2018-07-24T00:22:20.205Z,93.70
2018-07-24T00:24:48.821Z,93.90
2018-07-24T00:27:17.330Z,93.90
2018-07-24T00:29:45.760Z,93.90
2018-07-24T00:32:14.277Z,94.00
2018-07-24T00:34:42.878Z,94.00
2018-07-24T00:37:11.345Z,94.20
2018-07-24T00:39:39.777Z,94.40
2018-07-24T00:42:08.260Z,94.40
2018-07-24T00:44:36.764Z,94.70
2018-07-24T00:47:05.260Z,94.60
2018-07-24T00:49:33.728Z,94.80
2018-07-24T00:52:02.235Z,94.70
2018-07-24T00:54:30.724Z,94.50
2018-07-24T00:56:59.167Z,94.70
2018-07-24T00:59:27.649Z,94.90
2018-07-24T01:01:56.119Z,95.00
2018-07-24T01:04:25.178Z,95.00
2018-07-24T01:06:53.721Z,95.40
2018-07-24T01:09:22.824Z,95.40
2018-07-24T01:11:51.322Z,95.30
2018-07-24T01:14:20.202Z,95.70
2018-07-24T01:16:48.808Z,95.90
2018-07-24T01:19:17.883Z,95.40
2018-07-24T01:21:46.377Z,95.50
2018-07-24T01:24:14.901Z,95.80
2018-07-24T01:26:43.487Z,95.80
2018-07-24T01:29:11.990Z,95.50
2018-07-24T01:31:41.141Z,95.80
2018-07-24T01:34:09.615Z,95.90
2018-07-24T01:36:38.057Z,95.80
2018-07-24T01:39:08.596Z,95.90
2018-07-24T01:41:37.041Z,96.40
2018-07-24T01:44:05.580Z,96.40
2018-07-24T01:46:34.081Z,96.40
2018-07-24T01:49:02.581Z,96.50
2018-07-24T01:51:31.615Z,96.50
2018-07-24T01:54:00.134Z,96.50
2018-07-24T01:56:29.633Z,96.50
2018-07-24T01:58:58.150Z,96.20
2018-07-24T02:01:26.658Z,96.10
2018-07-24T02:03:55.159Z,96.00
2018-07-24T02:06:23.619Z,96.30
2018-07-24T02:08:52.071Z,96.20
2018-07-24T02:11:20.572Z,96.10
2018-07-24T02:13:49.123Z,96.10
2018-07-24T02:16:17.725Z,96.20
2018-07-24T02:21:14.327Z,96.80
2018-07-24T02:23:43.068Z,96.90
2018-07-24T02:26:11.536Z,96.50
2018-07-24T02:28:40.010Z,96.20
2018-07-24T02:31:08.484Z,96.00
2018-07-24T02:33:36.980Z,96.00
2018-07-24T02:36:05.598Z,96.30
2018-07-24T02:38:34.111Z,96.20
2018-07-24T02:41:02.598Z,96.20
2018-07-24T02:43:31.198Z,96.50
2018-07-24T02:45:59.754Z,96.40
2018-07-24T02:48:28.237Z,96.10
2018-07-24T02:50:56.846Z,95.90
2018-07-24T02:53:25.309Z,95.90
2018-07-24T02:55:54.031Z,96.20
2018-07-24T02:58:23.362Z,96.10
2018-07-24T03:00:51.865Z,96.00
2018-07-24T03:03:21.347Z,96.10
2018-07-24T03:05:49.811Z,95.70
2018-07-24T03:08:18.361Z,95.70
2018-07-24T03:10:46.936Z,95.80
2018-07-24T03:13:15.416Z,96.10
2018-07-24T03:15:43.928Z,96.20
2018-07-24T03:18:13.015Z,96.30
2018-07-24T03:20:41.643Z,95.90
2018-07-24T03:23:10.195Z,96.20
2018-07-24T03:25:38.665Z,96.10
2018-07-24T03:28:07.181Z,95.70
2018-07-24T03:30:35.632Z,96.10
2018-07-24T03:33:04.175Z,96.00
2018-07-24T03:35:32.692Z,95.70
2018-07-24T03:38:01.282Z,95.90
2018-07-24T03:40:29.793Z,96.40
2018-07-24T03:42:58.384Z,96.40
2018-07-24T03:45:26.903Z,96.80
2018-07-24T03:47:55.447Z,96.50
2018-07-24T03:50:23.918Z,96.50
2018-07-24T03:52:52.872Z,96.50
2018-07-24T03:55:21.337Z,96.30
2018-07-24T04:02:46.202Z,96.40
2018-07-24T04:05:14.725Z,96.40
2018-07-24T04:07:43.294Z,96.60
2018-07-24T04:10:11.790Z,96.70
2018-07-24T04:12:40.243Z,96.10
2018-07-24T04:15:08.800Z,96.20
2018-07-24T04:17:37.269Z,96.20
2018-07-24T04:20:05.785Z,95.90
2018-07-24T04:22:34.953Z,96.50
2018-07-24T04:25:03.505Z,96.80
2018-07-24T04:27:31.988Z,97.60
2018-07-24T04:30:00.540Z,97.30
2018-07-24T04:32:29.272Z,97.00
2018-07-24T04:34:57.867Z,97.20
2018-07-24T04:37:27.010Z,97.70
2018-07-24T04:39:55.548Z,97.70
2018-07-24T04:42:24.041Z,97.60
2018-07-24T04:44:52.775Z,97.70
2018-07-24T04:47:21.308Z,97.40
2018-07-24T04:49:49.796Z,97.60
2018-07-24T04:52:18.324Z,97.50
2018-07-24T04:54:47.006Z,97.40
2018-07-24T04:57:15.461Z,97.30
2018-07-24T04:59:43.954Z,97.20
2018-07-24T05:02:12.701Z,97.40
2018-07-24T05:04:41.312Z,97.10
2018-07-24T05:07:10.027Z,97.00
2018-07-24T05:09:38.564Z,97.20
2018-07-24T05:12:07.178Z,96.90
2018-07-24T05:14:36.428Z,97.30
2018-07-24T05:17:04.918Z,97.40
2018-07-24T05:19:33.448Z,97.20
2018-07-24T05:22:01.985Z,97.00
2018-07-24T05:24:32.191Z,97.00
2018-07-24T05:27:00.689Z,97.00
2018-07-24T05:29:29.241Z,97.10
2018-07-24T05:32:28.529Z,97.10
2018-07-24T05:34:56.995Z,97.10
2018-07-24T05:37:25.468Z,96.90
2018-07-24T05:39:53.936Z,97.00
2018-07-24T05:42:22.495Z,96.90
2018-07-24T05:44:51.042Z,96.70
2018-07-24T05:47:19.529Z,96.30
2018-07-24T05:49:48.022Z,96.10
2018-07-24T05:52:16.535Z,96.20
2018-07-24T05:54:45.209Z,96.00
2018-07-24T05:57:13.692Z,96.00
2018-07-24T05:59:42.136Z,95.90
2018-07-24T06:02:10.858Z,95.80
2018-07-24T06:04:39.495Z,95.70
2018-07-24T06:07:07.972Z,95.50
2018-07-24T06:09:36.446Z,95.60
2018-07-24T06:12:05.097Z,95.30
2018-07-24T06:14:33.695Z,95.20
2018-07-24T06:17:02.297Z,95.60
2018-07-24T06:19:30.872Z,95.20
2018-07-24T06:22:00.379Z,94.90
2018-07-24T06:24:28.884Z,94.50
2018-07-24T06:26:57.448Z,94.30
2018-07-24T06:29:25.988Z,94.10
2018-07-24T06:31:55.577Z,93.30
2018-07-24T06:34:24.033Z,94.10
2018-07-24T06:36:52.567Z,94.10
2018-07-24T06:39:21.084Z,94.10
2018-07-24T06:41:49.561Z,93.30
2018-07-24T06:44:18.122Z,92.70
2018-07-24T06:46:47.078Z,92.20
2018-07-24T06:49:15.629Z,91.90
2018-07-24T06:54:13.269Z,91.00
2018-07-24T06:56:41.881Z,91.10
2018-07-24T06:59:10.364Z,90.60
2018-07-24T07:01:38.878Z,90.40
2018-07-24T07:04:07.382Z,89.50
2018-07-24T07:06:35.881Z,89.20
2018-07-24T07:09:07.379Z,88.60
2018-07-24T07:11:36.703Z,88.00
2018-07-24T07:14:05.919Z,86.00
2018-07-24T07:16:34.793Z,85.70
2018-07-24T07:19:03.345Z,86.20
2018-07-24T07:21:31.899Z,85.40
2018-07-24T07:24:01.149Z,84.30
2018-07-24T07:26:29.640Z,84.40
2018-07-24T07:28:58.124Z,83.20
2018-07-24T07:31:26.719Z,82.90
2018-07-24T07:33:55.347Z,81.50
2018-07-24T07:36:23.924Z,80.40
2018-07-24T07:38:52.423Z,79.70
2018-07-24T07:41:20.865Z,79.50
2018-07-24T07:43:49.350Z,78.20
2018-07-24T07:46:17.829Z,79.00
2018-07-24T07:48:46.325Z,77.80
2018-07-24T07:51:14.830Z,76.30
2018-07-24T07:53:44.268Z,76.40
2018-07-24T07:56:12.765Z,74.80
2018-07-24T07:58:41.276Z,75.40
2018-07-24T08:01:09.893Z,74.00
2018-07-24T08:03:38.375Z,74.40
2018-07-24T08:06:06.847Z,74.30
2018-07-24T08:08:36.037Z,73.70
2018-07-24T08:11:04.701Z,73.50
2018-07-24T08:13:33.368Z,72.40
2018-07-24T08:16:01.921Z,72.80
2018-07-24T08:18:30.598Z,71.20
2018-07-24T08:20:59.114Z,71.70
2018-07-24T08:23:27.741Z,70.10
2018-07-24T08:25:56.289Z,70.60
2018-07-24T08:28:24.734Z,69.20
2018-07-24T08:30:53.225Z,69.20
2018-07-24T08:33:21.702Z,68.80
2018-07-24T08:35:50.172Z,69.20
2018-07-24T08:38:18.778Z,69.20
2018-07-24T08:40:47.292Z,67.00
2018-07-24T08:43:15.789Z,66.80
2018-07-24T08:45:44.240Z,67.40
2018-07-24T08:48:12.797Z,66.80
2018-07-24T08:50:41.309Z,66.70
2018-07-24T08:53:10.050Z,66.60
2018-07-24T08:55:38.657Z,66.40
2018-07-24T08:58:07.172Z,64.90
2018-07-24T09:00:35.808Z,65.90
2018-07-24T09:03:04.367Z,64.80
2018-07-24T09:05:32.990Z,65.10
2018-07-24T09:08:01.451Z,64.30
2018-07-24T09:10:30.005Z,62.60
2018-07-24T09:12:58.481Z,62.60
2018-07-24T09:15:27.074Z,63.20
2018-07-24T09:17:55.527Z,62.90
2018-07-24T09:20:23.990Z,62.90
2018-07-24T09:22:52.471Z,59.20
2018-07-24T09:25:21.018Z,60.00
2018-07-24T09:27:49.445Z,59.70
2018-07-24T09:30:17.997Z,61.00
2018-07-24T09:32:46.448Z,59.50
2018-07-24T09:35:15.025Z,58.50
2018-07-24T09:37:43.492Z,58.70
2018-07-24T09:40:12.020Z,59.40
2018-07-24T09:42:40.533Z,58.80
2018-07-24T09:45:09.046Z,58.00
2018-07-24T09:47:37.545Z,57.90
2018-07-24T09:50:06.321Z,58.90
2018-07-24T09:52:34.839Z,58.00
2018-07-24T09:55:04.669Z,58.30
2018-07-24T09:57:33.181Z,58.70
2018-07-24T10:00:01.739Z,57.30
2018-07-24T10:02:30.320Z,57.10
2018-07-24T10:04:58.930Z,57.50
2018-07-24T10:07:28.538Z,56.30
2018-07-24T10:09:57.191Z,56.70
2018-07-24T10:14:54.407Z,56.90
2018-07-24T10:17:23.148Z,56.80
2018-07-24T10:19:51.698Z,57.70
2018-07-24T10:22:20.409Z,55.90
2018-07-24T10:24:48.908Z,55.70
2018-07-24T10:29:45.561Z,55.10
2018-07-24T10:32:14.137Z,57.00
2018-07-24T10:34:42.659Z,55.60
2018-07-24T10:37:11.367Z,53.90
2018-07-24T10:39:39.870Z,53.80
2018-07-24T10:42:08.406Z,54.10
2018-07-24T10:47:05.244Z,53.40
2018-07-24T10:49:34.184Z,54.10
2018-07-24T10:52:02.812Z,51.60
2018-07-24T10:54:31.541Z,50.70
2018-07-24T10:57:00.019Z,49.40
2018-07-24T10:59:29.554Z,48.40
2018-07-24T11:01:58.061Z,48.20
2018-07-24T11:04:26.573Z,48.50
2018-07-24T11:06:58.190Z,48.60
2018-07-24T11:09:26.763Z,49.10
2018-07-24T11:11:57.704Z,49.10
2018-07-24T11:14:26.260Z,49.00
2018-07-24T11:16:54.791Z,48.40
2018-07-24T11:19:23.381Z,48.00
2018-07-24T11:21:51.964Z,49.70
2018-07-24T11:24:20.436Z,48.70
2018-07-24T11:31:45.682Z,47.80
2018-07-24T11:34:14.215Z,49.40
2018-07-24T11:36:42.739Z,47.70
2018-07-24T11:39:11.887Z,49.40
2018-07-24T11:41:40.539Z,48.20
2018-07-24T11:44:09.220Z,49.80
2018-07-24T11:46:37.697Z,49.10
2018-07-24T11:49:06.202Z,47.80
2018-07-24T11:51:34.820Z,47.90
2018-07-24T11:54:03.296Z,49.60
2018-07-24T11:56:31.876Z,48.70
2018-07-24T12:01:28.579Z,48.70
2018-07-24T12:03:57.096Z,49.00
2018-07-24T12:06:25.640Z,49.30
2018-07-24T12:08:54.775Z,49.80
2018-07-24T12:11:23.290Z,49.80
2018-07-24T12:13:51.833Z,48.80
2018-07-24T12:16:20.547Z,50.70
2018-07-24T12:18:49.069Z,47.70
2018-07-24T12:21:17.745Z,48.40
2018-07-24T12:23:46.408Z,48.20
2018-07-24T12:26:15.913Z,47.90
2018-07-24T12:28:44.425Z,48.10
2018-07-24T12:33:41.975Z,48.90
2018-07-24T12:36:11.596Z,49.60
2018-07-24T12:38:40.332Z,50.60
2018-07-24T12:41:08.962Z,49.20
2018-07-24T12:43:37.539Z,48.90
2018-07-24T12:46:06.138Z,48.90
2018-07-24T12:48:34.785Z,50.10
2018-07-24T12:53:31.568Z,50.30
2018-07-24T12:56:00.103Z,50.60
2018-07-24T12:58:28.705Z,49.70
2018-07-24T13:00:57.265Z,50.60
2018-07-24T13:03:25.911Z,49.50
2018-07-24T13:05:54.489Z,49.90
2018-07-24T13:08:23.213Z,48.90
2018-07-24T13:10:51.864Z,49.30
2018-07-24T13:13:20.303Z,48.40
2018-07-24T13:15:48.897Z,48.30
2018-07-24T13:18:18.334Z,48.10
2018-07-24T13:20:46.997Z,47.30
2018-07-24T13:23:15.578Z,47.80
2018-07-24T13:25:44.160Z,45.70
2018-07-24T13:28:12.686Z,46.00
2018-07-24T13:30:41.309Z,46.80
2018-07-24T13:33:09.839Z,48.20
2018-07-24T13:35:38.357Z,46.90
2018-07-24T13:38:07.946Z,46.40
2018-07-24T13:40:36.484Z,46.70
2018-07-24T13:43:05.004Z,44.50
2018-07-24T13:45:34.492Z,46.20
2018-07-24T13:48:02.988Z,46.50
2018-07-24T13:50:34.332Z,46.30
2018-07-24T13:53:02.980Z,46.90
2018-07-24T13:55:31.463Z,45.70
2018-07-24T13:58:00.177Z,45.90
2018-07-24T14:00:28.751Z,47.20
2018-07-24T14:02:57.367Z,46.30
2018-07-24T14:05:26.651Z,46.30
2018-07-24T14:07:55.196Z,46.50
2018-07-24T14:10:23.784Z,45.80
2018-07-24T14:12:52.487Z,46.20
2018-07-24T14:15:21.002Z,44.60
2018-07-24T14:17:49.548Z,45.00
2018-07-24T14:20:18.130Z,45.30
2018-07-24T14:22:46.593Z,44.90
2018-07-24T14:25:15.223Z,46.30
2018-07-24T14:30:12.030Z,44.60
2018-07-24T14:32:40.566Z,44.70
2018-07-24T14:35:09.090Z,45.00
2018-07-24T14:37:37.664Z,44.00
2018-07-24T14:40:06.366Z,41.80
2018-07-24T14:42:35.026Z,42.80
2018-07-24T14:45:03.715Z,41.80
2018-07-24T14:47:32.507Z,42.20
2018-07-24T14:50:01.064Z,41.70
2018-07-24T14:52:30.192Z,40.50
2018-07-24T14:54:58.920Z,40.20
2018-07-24T14:57:28.007Z,40.30
2018-07-24T14:59:56.570Z,41.80
2018-07-24T15:02:25.242Z,40.70
2018-07-24T15:04:53.752Z,40.30
2018-07-24T15:07:22.337Z,40.40
2018-07-24T15:09:50.957Z,40.30
2018-07-24T15:12:19.473Z,40.30
2018-07-24T15:14:49.056Z,38.70
2018-07-24T15:17:17.612Z,40.60
2018-07-24T15:19:46.253Z,41.00
2018-07-24T15:22:14.962Z,39.20
2018-07-24T15:24:43.737Z,39.50
2018-07-24T15:27:12.315Z,39.90
2018-07-24T15:29:41.467Z,39.90
2018-07-24T15:32:10.060Z,40.40
2018-07-24T15:34:38.820Z,39.20
2018-07-24T15:37:07.271Z,37.90
2018-07-24T15:39:36.231Z,37.80
2018-07-24T15:42:04.903Z,36.90
2018-07-24T15:44:33.436Z,36.80
2018-07-24T15:47:02.088Z,38.70
2018-07-24T15:49:30.656Z,37.30
2018-07-24T15:51:59.180Z,37.40
2018-07-24T15:54:27.841Z,38.20
2018-07-24T15:56:56.391Z,39.00
2018-07-24T15:59:25.334Z,38.90
2018-07-24T16:01:53.813Z,39.70
2018-07-24T16:04:22.347Z,40.50
2018-07-24T16:06:50.891Z,40.10
2018-07-24T16:09:19.563Z,39.40
2018-07-24T16:11:48.131Z,40.90
2018-07-24T16:14:16.597Z,41.50
2018-07-24T16:16:45.197Z,42.10
2018-07-24T16:19:13.796Z,42.20
2018-07-24T16:21:42.406Z,41.60
2018-07-24T16:24:10.961Z,43.80
2018-07-24T16:26:39.478Z,43.40
2018-07-24T16:29:08.050Z,44.10
2018-07-24T16:31:36.645Z,45.60
2018-07-24T16:34:06.172Z,44.70
2018-07-24T16:36:34.859Z,45.60
2018-07-24T16:39:03.962Z,45.30
2018-07-24T16:41:32.664Z,46.10
2018-07-24T16:44:01.239Z,44.40
2018-07-24T16:46:29.918Z,45.60
2018-07-24T16:49:00.176Z,45.20
2018-07-24T16:51:28.831Z,44.60
2018-07-24T16:53:57.590Z,42.90
2018-07-24T16:56:26.110Z,43.50
2018-07-24T16:58:55.263Z,44.80
2018-07-24T17:01:24.058Z,44.00
2018-07-24T17:03:52.544Z,45.60
2018-07-24T17:06:21.677Z,44.80
2018-07-24T17:08:50.183Z,45.30
2018-07-24T17:11:18.677Z,46.10
2018-07-24T17:13:47.350Z,46.30
2018-07-24T17:16:15.993Z,46.20
2018-07-24T17:18:44.462Z,48.20
2018-07-24T17:23:41.172Z,48.90
2018-07-24T17:26:09.800Z,49.50
2018-07-24T17:28:38.355Z,50.40
2018-07-24T17:33:36.082Z,51.70
2018-07-24T17:38:33.249Z,53.60
2018-07-24T17:41:01.776Z,53.90
2018-07-24T17:43:30.335Z,54.00
2018-07-24T17:45:58.795Z,54.20
2018-07-24T17:48:27.389Z,55.00
2018-07-24T17:50:55.817Z,55.70
2018-07-24T17:53:24.370Z,57.10
2018-07-24T17:55:52.834Z,58.00
2018-07-24T17:58:22.849Z,57.80
2018-07-24T18:00:51.381Z,58.20
2018-07-24T18:03:19.920Z,58.20
2018-07-24T18:05:48.505Z,59.60
2018-07-24T18:08:17.029Z,59.90
2018-07-24T18:10:45.605Z,59.80
2018-07-24T18:13:14.608Z,61.00
2018-07-24T18:15:43.141Z,61.30
2018-07-24T18:18:12.330Z,62.90
2018-07-24T18:20:40.990Z,63.00
2018-07-24T18:23:09.477Z,63.10
2018-07-24T18:25:37.971Z,64.20
2018-07-24T18:28:06.470Z,65.90
2018-07-24T18:30:34.939Z,66.20
2018-07-24T18:33:03.611Z,67.20
2018-07-24T18:38:00.546Z,67.00
2018-07-24T18:40:29.056Z,67.20
2018-07-24T18:42:57.675Z,67.40
2018-07-24T18:47:54.413Z,67.30
2018-07-24T18:50:22.895Z,68.60
2018-07-24T18:52:51.753Z,69.60
2018-07-24T18:55:20.329Z,70.60
2018-07-24T18:57:48.817Z,72.20
2018-07-24T19:00:17.336Z,73.30
2018-07-24T19:02:45.858Z,73.80
2018-07-24T19:05:14.405Z,74.10
2018-07-24T19:07:42.933Z,75.20
2018-07-24T19:10:11.565Z,75.10
2018-07-24T19:12:40.065Z,76.00
2018-07-24T19:15:09.631Z,76.40
2018-07-24T19:17:38.265Z,77.00
2018-07-24T19:20:06.755Z,77.10
2018-07-24T19:22:35.292Z,76.80
2018-07-24T19:25:03.960Z,77.80
2018-07-24T19:27:32.571Z,78.30
2018-07-24T19:30:01.144Z,78.60
2018-07-24T19:32:29.770Z,78.80
2018-07-24T19:34:59.000Z,79.30
2018-07-24T19:37:27.476Z,79.40
2018-07-24T19:39:56.767Z,79.90
2018-07-24T19:42:25.497Z,80.50
2018-07-24T19:44:54.063Z,81.00
2018-07-24T19:47:22.537Z,81.60
2018-07-24T19:49:51.256Z,81.20
2018-07-24T19:52:19.717Z,81.50
2018-07-24T19:54:48.246Z,82.30
2018-07-24T19:59:44.964Z,82.10
2018-07-24T20:02:13.659Z,82.80
2018-07-24T20:04:42.212Z,82.40
2018-07-24T20:07:10.864Z,81.90
2018-07-24T20:09:39.347Z,82.30
2018-07-24T20:12:08.019Z,82.10
2018-07-24T20:14:36.727Z,82.20
2018-07-24T20:17:05.239Z,82.00
2018-07-24T20:19:33.734Z,81.60
2018-07-24T20:22:02.210Z,81.40
2018-07-24T20:24:30.694Z,81.30
2018-07-24T20:26:59.184Z,82.00
2018-07-24T20:29:27.852Z,82.30
2018-07-24T20:31:56.313Z,83.10
2018-07-24T20:34:24.917Z,83.30
2018-07-24T20:36:53.423Z,84.20
2018-07-24T20:39:21.993Z,84.70
2018-07-24T20:41:50.637Z,84.20
2018-07-24T20:44:19.140Z,85.10
2018-07-24T20:46:47.638Z,85.20
2018-07-24T20:49:16.125Z,85.30
2018-07-24T20:51:44.649Z,85.40
2018-07-24T20:54:13.161Z,85.20
2018-07-24T20:56:41.632Z,85.20
2018-07-24T20:59:10.164Z,85.60
2018-07-24T21:01:38.709Z,85.60
2018-07-24T21:04:07.233Z,86.00
2018-07-24T21:06:35.729Z,86.10
2018-07-24T21:09:06.809Z,85.90
2018-07-24T21:11:35.332Z,86.80
2018-07-24T21:14:04.746Z,87.00
2018-07-24T21:16:33.544Z,87.40
2018-07-24T21:19:02.066Z,87.40
2018-07-24T21:21:31.406Z,87.00
2018-07-24T21:24:00.802Z,86.60
2018-07-24T21:26:29.279Z,87.00
2018-07-24T21:31:26.248Z,87.40
2018-07-24T21:33:54.730Z,87.70
2018-07-24T21:36:23.344Z,88.30
2018-07-24T21:38:51.840Z,87.20
2018-07-24T21:41:20.432Z,88.10
2018-07-24T21:43:48.957Z,88.60
2018-07-24T21:46:17.475Z,88.80
2018-07-24T21:48:45.972Z,88.60
2018-07-24T21:51:14.512Z,88.00
2018-07-24T21:53:43.120Z,89.30
2018-07-24T21:58:39.835Z,90.00
2018-07-24T22:01:11.360Z,89.30
2018-07-24T22:03:39.829Z,89.90
2018-07-24T22:06:08.617Z,89.80
2018-07-24T22:08:37.461Z,90.50
2018-07-24T22:11:06.017Z,91.00
2018-07-24T22:13:35.186Z,90.60
2018-07-24T22:16:03.745Z,90.10
2018-07-24T22:18:32.290Z,90.20
2018-07-24T22:21:00.803Z,90.30
2018-07-24T22:23:29.365Z,90.50
2018-07-24T22:25:57.839Z,90.20
2018-07-24T22:28:27.251Z,91.20
2018-07-24T22:33:24.498Z,91.30
2018-07-24T22:35:53.204Z,91.20
2018-07-24T22:38:21.670Z,91.30
2018-07-24T22:40:50.276Z,91.40
2018-07-24T22:45:47.027Z,91.40
2018-07-24T22:48:15.511Z,91.60
2018-07-24T22:50:44.033Z,91.60
2018-07-24T22:53:12.684Z,91.50
2018-07-24T22:55:41.260Z,91.60
2018-07-24T22:58:09.846Z,91.50
2018-07-24T23:00:38.313Z,91.80
2018-07-24T23:03:06.917Z,91.80
2018-07-24T23:05:35.487Z,92.00
2018-07-24T23:08:04.105Z,92.10
2018-07-24T23:10:34.855Z,92.10
2018-07-24T23:13:04.899Z,92.00
2018-07-24T23:15:33.411Z,92.00
2018-07-24T23:20:30.101Z,92.10
2018-07-24T23:22:58.742Z,92.20
2018-07-24T23:25:27.252Z,92.20
2018-07-24T23:27:55.886Z,92.30
2018-07-24T23:30:24.344Z,92.10
2018-07-24T23:32:52.837Z,92.00
2018-07-24T23:35:21.417Z,92.10
2018-07-24T23:37:49.864Z,92.30
2018-07-24T23:40:18.344Z,91.80
2018-07-24T23:42:47.718Z,91.70
2018-07-24T23:45:16.874Z,91.90
2018-07-24T23:47:45.302Z,92.20
2018-07-24T23:50:13.898Z,92.10
2018-07-24T23:52:42.475Z,91.80
2018-07-24T23:55:11.015Z,92.10
2018-07-24T23:57:39.456Z,92.80
